Time;durP1;ratioP1;P1;durP2;ratioP2;P2;SDS_P1;SDS_P2;PMS_P1;PMS_P2;Temp;Humidity;BMP_temperature;BMP_pressure;BME280_temperature;BME280_humidity;BME280_pressure;Samples;Min_cycle;Max_cycle;Signal;HPM_P1;HPM_P2
2023/07/26 00:01:42;;;;;;;4.75;2.45;;;14.90;99.90;;;;;;5099433;28;20049;-58
2023/07/26 00:04:08;;;;;;;5.75;2.30;;;14.90;99.90;;;;;;5098704;28;20040;-58
2023/07/26 00:06:34;;;;;;;5.07;2.58;;;14.90;99.90;;;;;;5098173;28;20062;-58
2023/07/26 00:09:00;;;;;;;4.93;2.50;;;14.90;99.90;;;;;;5102593;28;20034;-58
2023/07/26 00:11:26;;;;;;;4.38;2.38;;;14.90;99.90;;;;;;5100955;28;20059;-58
2023/07/26 00:13:51;;;;;;;5.78;2.63;;;14.90;99.90;;;;;;5103495;28;20127;-58
2023/07/26 00:16:17;;;;;;;4.03;2.22;;;14.90;99.90;;;;;;5101287;28;20064;-59
2023/07/26 00:18:43;;;;;;;6.15;2.30;;;14.90;99.90;;;;;;5103314;28;20044;-59
2023/07/26 00:21:09;;;;;;;5.97;2.00;;;14.90;99.90;;;;;;5102079;28;20431;-58
2023/07/26 00:23:34;;;;;;;5.55;2.20;;;14.90;99.90;;;;;;5102023;28;20040;-59
2023/07/26 00:26:01;;;;;;;5.72;2.55;;;14.90;99.90;;;;;;5102816;28;20076;-58
2023/07/26 00:28:26;;;;;;;7.03;2.30;;;14.90;99.90;;;;;;5101166;28;20036;-58
2023/07/26 00:30:52;;;;;;;5.82;2.38;;;14.90;99.90;;;;;;5103244;28;20407;-59
2023/07/26 00:33:18;;;;;;;5.28;2.05;;;14.90;99.90;;;;;;5100843;28;20040;-59
2023/07/26 00:35:44;;;;;;;6.18;2.17;;;14.90;99.90;;;;;;5101812;28;20067;-58
2023/07/26 00:38:10;;;;;;;4.53;2.20;;;14.90;99.90;;;;;;5101238;28;20108;-57
2023/07/26 00:40:36;;;;;;;5.70;2.22;;;14.90;99.90;;;;;;5100694;28;20039;-58
2023/07/26 00:43:03;;;;;;;8.65;2.30;;;14.90;99.90;;;;;;5100839;28;20044;-58
2023/07/26 00:45:30;;;;;;;6.00;2.55;;;14.80;99.90;;;;;;5100984;28;20046;-58
2023/07/26 00:47:57;;;;;;;8.70;2.67;;;14.90;99.90;;;;;;5102612;28;20040;-58
2023/07/26 00:50:23;;;;;;;7.25;2.58;;;14.90;99.90;;;;;;5100411;28;20088;-58
2023/07/26 00:52:49;;;;;;;6.63;2.50;;;14.90;99.90;;;;;;5102870;28;20036;-58
2023/07/26 00:55:15;;;;;;;6.05;2.30;;;14.80;99.90;;;;;;5101071;28;20157;-58
2023/07/26 00:57:42;;;;;;;5.22;2.55;;;14.80;99.90;;;;;;5101778;28;20062;-58
2023/07/26 01:00:08;;;;;;;4.53;2.20;;;14.80;99.90;;;;;;5102112;28;20051;-58
2023/07/26 01:02:34;;;;;;;4.72;2.47;;;14.80;99.90;;;;;;5100412;28;20064;-59
2023/07/26 01:05:01;;;;;;;8.32;2.50;;;14.80;99.90;;;;;;5102193;28;20047;-58
2023/07/26 01:07:38;;;;;;;3.75;2.33;;;14.80;99.90;;;;;;5099896;28;20036;-58
2023/07/26 01:10:16;;;;;;;5.22;2.10;;;14.80;99.90;;;;;;5102517;28;20044;-58
2023/07/26 01:13:17;;;;;;;7.57;2.33;;;14.80;99.90;;;;;;5101151;28;20104;-58
2023/07/26 01:15:46;;;;;;;4.88;2.80;;;14.70;99.90;;;;;;5095886;28;20044;-59
2023/07/26 01:18:14;;;;;;;5.57;2.75;;;14.70;99.90;;;;;;5102268;28;20051;-58
2023/07/26 01:20:40;;;;;;;6.38;2.53;;;14.70;99.90;;;;;;5098005;28;20524;-58
2023/07/26 01:23:06;;;;;;;4.75;2.80;;;14.60;99.90;;;;;;5101829;28;20047;-58
2023/07/26 01:25:33;;;;;;;6.95;3.30;;;14.60;99.90;;;;;;5101040;28;20036;-58
2023/07/26 01:27:58;;;;;;;8.85;3.20;;;14.50;99.90;;;;;;5100696;28;20127;-58
2023/07/26 01:30:30;;;;;;;6.45;2.72;;;14.50;99.90;;;;;;5101478;28;20419;-58
2023/07/26 01:32:59;;;;;;;5.88;2.97;;;14.40;99.90;;;;;;5099870;28;20063;-58
2023/07/26 01:35:25;;;;;;;5.28;3.10;;;14.40;99.90;;;;;;5101792;28;20151;-58
2023/07/26 01:37:53;;;;;;;7.82;3.50;;;14.30;99.90;;;;;;5099703;28;20170;-58
2023/07/26 01:40:20;;;;;;;6.53;3.35;;;14.30;99.90;;;;;;5101384;28;20048;-58
2023/07/26 01:42:46;;;;;;;7.32;3.05;;;14.20;99.90;;;;;;5100505;28;20040;-57
2023/07/26 01:45:12;;;;;;;8.25;3.30;;;14.20;99.90;;;;;;5099905;28;20051;-59
2023/07/26 01:47:38;;;;;;;6.22;3.40;;;14.20;99.90;;;;;;5101341;28;20052;-58
2023/07/26 01:50:04;;;;;;;7.03;3.63;;;14.10;99.90;;;;;;5099453;28;20035;-58
2023/07/26 01:52:30;;;;;;;4.40;3.25;;;14.10;99.90;;;;;;5101535;28;20040;-58
2023/07/26 01:54:56;;;;;;;6.97;3.50;;;14.10;99.90;;;;;;5097961;28;20118;-58
2023/07/26 01:57:24;;;;;;;6.57;3.50;;;14.10;99.90;;;;;;5099696;28;20052;-59
2023/07/26 01:59:50;;;;;;;6.93;3.70;;;14.00;99.90;;;;;;5100776;28;20484;-58
2023/07/26 02:02:16;;;;;;;6.30;3.38;;;13.90;99.90;;;;;;5099646;28;20051;-58
2023/07/26 02:04:43;;;;;;;6.90;3.70;;;13.90;99.90;;;;;;5100930;28;20063;-58
2023/07/26 02:07:09;;;;;;;5.40;3.58;;;13.80;99.90;;;;;;5099105;28;20048;-58
2023/07/26 02:09:34;;;;;;;6.40;3.65;;;13.80;99.90;;;;;;5101175;28;20074;-58
2023/07/26 02:12:00;;;;;;;5.50;3.10;;;13.80;99.90;;;;;;5098683;28;20089;-58
2023/07/26 02:14:26;;;;;;;7.90;3.58;;;13.70;99.90;;;;;;5099806;28;20123;-58
2023/07/26 02:16:51;;;;;;;5.93;3.40;;;13.70;99.90;;;;;;5100124;28;20062;-57
2023/07/26 02:19:17;;;;;;;7.93;3.33;;;13.70;99.90;;;;;;5099593;28;20052;-58
2023/07/26 02:21:43;;;;;;;7.43;3.85;;;13.70;99.90;;;;;;5100624;28;20044;-58
2023/07/26 02:24:08;;;;;;;7.20;3.55;;;13.70;99.90;;;;;;5098852;28;20047;-58
2023/07/26 02:26:34;;;;;;;5.70;3.65;;;13.60;99.90;;;;;;5100637;28;20475;-61
2023/07/26 02:29:00;;;;;;;4.45;3.10;;;13.50;99.90;;;;;;5098621;28;20541;-58
2023/07/26 02:31:25;;;;;;;6.05;3.53;;;13.50;99.90;;;;;;5100247;28;20048;-58
2023/07/26 02:33:51;;;;;;;5.90;3.85;;;13.50;99.90;;;;;;5099165;28;20035;-58
2023/07/26 02:36:17;;;;;;;7.90;3.92;;;13.50;99.90;;;;;;5099773;28;20074;-58
2023/07/26 02:38:42;;;;;;;7.28;3.70;;;13.40;99.90;;;;;;5100208;28;20044;-58
2023/07/26 02:41:08;;;;;;;6.22;3.58;;;13.40;99.90;;;;;;5098179;28;20040;-58
2023/07/26 02:43:34;;;;;;;4.93;3.63;;;13.30;99.90;;;;;;5100383;28;20130;-58
2023/07/26 02:45:59;;;;;;;8.80;4.45;;;13.30;99.90;;;;;;5098269;28;20047;-58
2023/07/26 02:48:25;;;;;;;7.18;4.07;;;13.30;99.90;;;;;;5099433;28;20050;-58
2023/07/26 02:50:51;;;;;;;7.05;4.30;;;13.30;99.90;;;;;;5097315;28;20113;-57
2023/07/26 02:53:16;;;;;;;5.50;3.75;;;13.20;99.90;;;;;;5099753;28;20105;-58
2023/07/26 02:55:42;;;;;;;5.85;3.90;;;13.20;99.90;;;;;;5098584;28;20044;-57
2023/07/26 02:58:09;;;;;;;5.10;4.18;;;13.10;99.90;;;;;;5098247;28;20044;-58
2023/07/26 03:00:35;;;;;;;4.85;4.00;;;13.10;99.90;;;;;;5100077;28;20587;-58
2023/07/26 03:03:01;;;;;;;7.03;4.35;;;13.10;99.90;;;;;;5096579;28;20336;-58
2023/07/26 03:05:27;;;;;;;5.72;4.00;;;13.10;99.90;;;;;;5100497;28;20036;-58
2023/07/26 03:07:53;;;;;;;6.80;3.90;;;13.00;99.90;;;;;;5098369;28;20056;-58
2023/07/26 03:10:19;;;;;;;9.35;4.10;;;13.00;99.90;;;;;;5099471;28;20044;-58
2023/07/26 03:12:45;;;;;;;7.25;4.30;;;12.90;99.90;;;;;;5099332;28;20475;-57
2023/07/26 03:15:11;;;;;;;7.47;4.90;;;12.90;99.90;;;;;;5098458;28;20044;-59
2023/07/26 03:17:36;;;;;;;8.80;4.35;;;12.90;99.90;;;;;;5098726;28;20040;-59
2023/07/26 03:20:03;;;;;;;6.10;4.15;;;12.80;99.90;;;;;;5097842;28;20124;-58
2023/07/26 03:22:29;;;;;;;10.10;4.68;;;12.80;99.90;;;;;;5100153;28;20091;-58
2023/07/26 03:24:54;;;;;;;7.20;4.45;;;12.80;99.90;;;;;;5096781;28;20044;-58
2023/07/26 03:27:20;;;;;;;6.43;4.25;;;12.80;99.90;;;;;;5099912;28;20456;-58
2023/07/26 03:29:46;;;;;;;5.40;4.45;;;12.80;99.90;;;;;;5099268;28;20070;-59
2023/07/26 03:32:12;;;;;;;7.60;4.70;;;12.70;99.90;;;;;;5098408;28;20044;-59
2023/07/26 03:34:38;;;;;;;7.60;4.53;;;12.70;99.90;;;;;;5099535;28;20055;-58
2023/07/26 03:37:03;;;;;;;7.82;4.60;;;12.60;99.90;;;;;;5097914;28;20044;-58
2023/07/26 03:39:29;;;;;;;6.97;4.90;;;12.60;99.90;;;;;;5099771;28;20051;-57
2023/07/26 03:41:55;;;;;;;6.32;4.25;;;12.60;99.90;;;;;;5097368;28;20427;-58
2023/07/26 03:44:21;;;;;;;6.65;4.80;;;12.60;99.90;;;;;;5104257;28;20043;-58
2023/07/26 03:46:46;;;;;;;8.10;4.57;;;12.50;99.90;;;;;;5102756;28;20118;-58
2023/07/26 03:49:12;;;;;;;5.82;4.80;;;12.60;99.90;;;;;;5101319;28;20087;-58
2023/07/26 03:51:38;;;;;;;7.97;4.95;;;12.50;99.90;;;;;;5103506;28;20040;-58
2023/07/26 03:54:03;;;;;;;8.18;4.85;;;12.50;99.90;;;;;;5101628;28;20413;-58
2023/07/26 03:56:29;;;;;;;9.90;5.30;;;12.50;99.90;;;;;;5102437;28;20048;-58
2023/07/26 03:58:55;;;;;;;9.15;5.07;;;12.50;99.90;;;;;;5101483;28;20043;-58
2023/07/26 04:01:20;;;;;;;9.00;5.30;;;12.50;99.90;;;;;;5104030;28;20036;-58
2023/07/26 04:03:46;;;;;;;6.72;5.07;;;12.50;99.90;;;;;;5101878;28;20101;-57
2023/07/26 04:06:13;;;;;;;10.05;5.13;;;12.50;99.90;;;;;;5102629;28;20126;-58
2023/07/26 04:08:40;;;;;;;6.90;5.22;;;12.50;99.90;;;;;;5103096;28;20050;-57
2023/07/26 04:11:06;;;;;;;7.82;5.10;;;12.50;99.90;;;;;;5101226;28;20044;-58
2023/07/26 04:13:32;;;;;;;8.30;4.93;;;12.50;99.90;;;;;;5103194;28;20492;-58
2023/07/26 04:15:58;;;;;;;6.47;5.18;;;12.50;99.90;;;;;;5101325;28;20287;-59
2023/07/26 04:18:24;;;;;;;6.65;5.13;;;12.50;99.90;;;;;;5102168;28;20047;-58
2023/07/26 04:20:50;;;;;;;10.32;5.65;;;12.60;99.90;;;;;;5101601;28;20036;-58
2023/07/26 04:23:15;;;;;;;10.48;5.75;;;12.60;99.90;;;;;;5102321;28;20091;-58
2023/07/26 04:25:41;;;;;;;8.60;5.35;;;12.60;99.90;;;;;;5101664;28;20098;-57
2023/07/26 04:28:06;;;;;;;8.38;5.68;;;12.60;99.90;;;;;;5101172;28;20614;-58
2023/07/26 04:30:35;;;;;;;6.35;5.45;;;12.60;99.90;;;;;;5102910;28;20613;-58
2023/07/26 04:33:01;;;;;;;8.07;5.70;;;12.70;99.90;;;;;;5100677;28;20044;-58
2023/07/26 04:35:26;;;;;;;7.15;5.28;;;12.70;99.90;;;;;;5103011;28;20059;-58
2023/07/26 04:37:52;;;;;;;8.13;5.50;;;12.70;99.90;;;;;;5100918;28;20036;-58
2023/07/26 04:40:18;;;;;;;7.75;4.97;;;12.70;99.90;;;;;;5102522;28;20032;-58
2023/07/26 04:42:43;;;;;;;6.93;5.07;;;12.70;99.90;;;;;;5102185;28;20496;-58
2023/07/26 04:45:09;;;;;;;9.18;5.18;;;12.70;99.90;;;;;;5101057;28;20044;-58
2023/07/26 04:47:35;;;;;;;7.32;5.05;;;12.70;99.90;;;;;;5102613;28;20039;-58
2023/07/26 04:50:01;;;;;;;8.98;5.93;;;12.70;99.90;;;;;;5100636;28;20051;-59
2023/07/26 04:52:26;;;;;;;11.80;5.75;;;12.80;99.90;;;;;;5102723;28;20417;-58
2023/07/26 04:54:52;;;;;;;9.35;5.40;;;12.80;99.90;;;;;;5098259;28;20042;-58
2023/07/26 04:57:18;;;;;;;9.95;5.82;;;12.90;99.90;;;;;;5102420;28;20100;-58
2023/07/26 04:59:43;;;;;;;7.85;5.25;;;12.90;99.90;;;;;;5101573;28;20126;-57
2023/07/26 05:02:09;;;;;;;8.27;5.65;;;12.90;99.90;;;;;;5100916;28;20111;-58
2023/07/26 05:04:35;;;;;;;9.80;6.07;;;12.90;99.90;;;;;;5102133;28;20036;-58
2023/07/26 05:07:01;;;;;;;7.70;6.00;;;12.90;99.90;;;;;;5100316;28;20103;-58
2023/07/26 05:09:26;;;;;;;6.68;4.78;;;12.90;99.90;;;;;;5102345;28;20441;-57
2023/07/26 05:11:52;;;;;;;9.82;5.20;;;12.90;99.90;;;;;;5099933;28;20036;-58
2023/07/26 05:14:20;;;;;;;7.57;5.30;;;12.90;99.90;;;;;;5102433;28;20039;-58
2023/07/26 05:16:46;;;;;;;8.45;5.03;;;12.90;99.90;;;;;;5101060;28;20047;-58
2023/07/26 05:19:11;;;;;;;9.52;6.10;;;12.90;99.90;;;;;;5100937;28;20036;-58
2023/07/26 05:21:39;;;;;;;8.32;5.47;;;12.90;99.90;;;;;;5101558;28;20055;-58
2023/07/26 05:24:05;;;;;;;9.13;5.78;;;12.90;99.90;;;;;;5100004;28;20044;-58
2023/07/26 05:26:30;;;;;;;9.07;5.68;;;13.00;99.90;;;;;;5101960;28;20048;-58
2023/07/26 05:28:56;;;;;;;9.88;5.85;;;12.90;99.90;;;;;;5099487;28;20070;-58
2023/07/26 05:31:22;;;;;;;8.40;6.32;;;13.00;99.90;;;;;;5102065;28;20059;-58
2023/07/26 05:33:47;;;;;;;9.50;5.82;;;13.00;99.90;;;;;;5100274;28;20430;-57
2023/07/26 05:36:13;;;;;;;11.85;6.18;;;13.00;99.90;;;;;;5100659;28;20048;-58
2023/07/26 05:38:39;;;;;;;8.25;5.75;;;13.10;99.90;;;;;;5101610;28;20099;-58
2023/07/26 05:41:05;;;;;;;7.63;5.97;;;13.10;99.90;;;;;;5099382;28;20044;-58
2023/07/26 05:43:31;;;;;;;7.03;5.93;;;13.10;99.90;;;;;;5101414;28;20104;-58
2023/07/26 05:45:57;;;;;;;10.57;6.47;;;13.20;99.90;;;;;;5099499;28;20260;-58
2023/07/26 05:48:22;;;;;;;5.60;4.90;;;13.20;99.90;;;;;;5101698;28;20407;-58
2023/07/26 05:50:48;;;;;;;11.77;6.03;;;13.20;99.90;;;;;;5099625;28;20043;-57
2023/07/26 05:53:14;;;;;;;11.30;5.95;;;13.20;99.90;;;;;;5100807;28;20040;-58
2023/07/26 05:55:40;;;;;;;9.52;6.05;;;13.20;99.90;;;;;;5101086;28;20040;-57
2023/07/26 05:58:06;;;;;;;8.55;5.55;;;13.30;99.90;;;;;;5099379;28;20055;-58
2023/07/26 06:00:32;;;;;;;6.82;5.50;;;13.40;99.90;;;;;;5101213;28;20113;-58
2023/07/26 06:02:57;;;;;;;8.52;6.13;;;13.40;99.90;;;;;;5098968;28;20075;-58
2023/07/26 06:05:24;;;;;;;9.82;5.95;;;13.50;99.90;;;;;;5101358;28;20400;-58
2023/07/26 06:07:50;;;;;;;10.13;6.18;;;13.50;99.90;;;;;;5098072;28;20552;-58
2023/07/26 06:10:16;;;;;;;8.80;6.20;;;13.60;99.90;;;;;;5100553;28;20044;-58
2023/07/26 06:12:42;;;;;;;8.07;5.53;;;13.70;99.90;;;;;;5098965;28;20046;-58
2023/07/26 06:15:08;;;;;;;8.73;5.95;;;13.70;99.90;;;;;;5097912;28;20036;-58
2023/07/26 06:17:34;;;;;;;8.55;5.57;;;13.80;99.90;;;;;;5100815;28;20043;-58
2023/07/26 06:19:59;;;;;;;8.98;5.45;;;13.80;99.90;;;;;;5097391;28;20081;-58
2023/07/26 06:22:25;;;;;;;9.10;5.70;;;13.90;99.90;;;;;;5101189;28;20043;-58
2023/07/26 06:24:51;;;;;;;11.68;5.70;;;13.90;99.90;;;;;;5099005;28;20052;-58
2023/07/26 06:27:25;;;;;;;7.20;5.70;;;13.90;99.90;;;;;;5100860;28;20382;-58
2023/07/26 06:29:51;;;;;;;7.28;5.57;;;14.00;99.90;;;;;;5099110;28;20044;-58
2023/07/26 06:32:16;;;;;;;10.02;5.07;;;14.10;99.90;;;;;;5098851;28;20040;-58
2023/07/26 06:34:42;;;;;;;7.93;5.22;;;14.10;99.90;;;;;;5100142;28;20072;-58
2023/07/26 06:37:08;;;;;;;7.00;5.03;;;14.20;99.90;;;;;;5098510;28;20535;-60
2023/07/26 06:39:34;;;;;;;6.97;5.18;;;14.30;99.90;;;;;;5099331;28;20039;-59
2023/07/26 06:42:00;;;;;;;10.07;4.95;;;14.40;99.90;;;;;;5096859;28;20048;-58
2023/07/26 06:44:25;;;;;;;7.82;4.70;;;14.40;99.90;;;;;;5100263;28;20063;-59
2023/07/26 06:46:51;;;;;;;6.95;5.07;;;14.60;99.90;;;;;;5099837;28;20097;-58
2023/07/26 06:49:17;;;;;;;6.80;4.95;;;14.70;99.90;;;;;;5098844;28;20036;-59
2023/07/26 06:51:42;;;;;;;7.47;5.50;;;14.70;99.90;;;;;;5098550;28;20073;-58
2023/07/26 06:54:08;;;;;;;9.32;5.22;;;14.70;99.90;;;;;;5098179;28;20147;-58
2023/07/26 06:56:34;;;;;;;9.35;5.10;;;14.70;99.90;;;;;;5100574;28;20071;-58
2023/07/26 06:59:01;;;;;;;10.85;5.00;;;14.70;99.90;;;;;;5098248;28;20091;-58
2023/07/26 07:01:27;;;;;;;9.05;5.47;;;14.70;99.90;;;;;;5100360;28;20055;-59
2023/07/26 07:03:52;;;;;;;6.78;4.72;;;14.60;99.90;;;;;;5099029;28;20044;-57
2023/07/26 07:06:18;;;;;;;11.75;6.03;;;14.60;99.90;;;;;;5098722;28;20036;-59
2023/07/26 07:08:44;;;;;;;8.27;5.65;;;14.50;99.90;;;;;;5098762;28;20133;-59
2023/07/26 07:11:10;;;;;;;6.97;5.30;;;14.40;99.90;;;;;;5079596;28;20032;-58
2023/07/26 07:13:36;;;;;;;9.77;6.20;;;14.40;99.90;;;;;;5099987;28;20040;-58
2023/07/26 07:16:05;;;;;;;8.07;5.80;;;14.30;99.90;;;;;;5097774;28;20036;-56
2023/07/26 07:18:31;;;;;;;8.23;5.22;;;14.30;99.90;;;;;;5098187;28;20054;-55
2023/07/26 07:21:00;;;;;;;7.93;4.32;;;14.20;99.90;;;;;;5098930;28;20032;-56
2023/07/26 07:23:25;;;;;;;6.00;4.30;;;14.20;99.90;;;;;;5098730;28;20068;-56
2023/07/26 07:25:51;;;;;;;7.68;3.55;;;14.10;99.90;;;;;;5099681;28;20039;-57
2023/07/26 07:28:17;;;;;;;7.00;3.50;;;14.10;99.90;;;;;;5097885;28;20149;-56
2023/07/26 07:30:43;;;;;;;6.03;3.55;;;14.10;99.90;;;;;;5099744;28;20080;-56
2023/07/26 07:33:09;;;;;;;5.38;3.70;;;14.00;99.90;;;;;;5097768;28;20453;-55
2023/07/26 07:35:35;;;;;;;5.10;3.72;;;14.00;99.90;;;;;;5099922;28;20529;-56
2023/07/26 07:38:01;;;;;;;8.57;4.10;;;14.10;99.90;;;;;;5098305;28;20040;-58
2023/07/26 07:40:26;;;;;;;7.05;4.03;;;14.10;99.90;;;;;;5097365;28;20048;-59
2023/07/26 07:42:52;;;;;;;6.88;3.90;;;14.10;99.90;;;;;;5099219;28;20497;-56
2023/07/26 07:45:18;;;;;;;3.97;3.47;;;14.20;99.90;;;;;;5096402;28;20040;-56
2023/07/26 07:47:43;;;;;;;4.22;3.30;;;14.20;99.90;;;;;;5099728;28;20036;-58
2023/07/26 07:50:09;;;;;;;3.55;3.15;;;14.30;99.90;;;;;;5097493;28;20040;-58
2023/07/26 07:52:35;;;;;;;3.50;2.58;;;14.30;99.90;;;;;;5100185;28;20048;-59
2023/07/26 07:55:00;;;;;;;3.38;2.50;;;14.30;99.90;;;;;;5096751;28;20044;-58
2023/07/26 07:57:26;;;;;;;4.32;2.53;;;14.40;99.90;;;;;;5099093;28;20067;-58
2023/07/26 07:59:52;;;;;;;3.88;2.55;;;14.50;99.90;;;;;;5099201;28;20051;-58
2023/07/26 08:02:18;;;;;;;3.58;2.50;;;14.60;99.90;;;;;;5096189;28;20052;-59
2023/07/26 08:04:43;;;;;;;4.85;2.90;;;14.70;99.90;;;;;;5099537;28;20047;-59
2023/07/26 08:07:09;;;;;;;3.00;2.58;;;14.90;99.90;;;;;;5097368;28;20052;-59
2023/07/26 08:09:35;;;;;;;4.35;2.90;;;15.20;99.90;;;;;;5099860;28;20070;-59
2023/07/26 08:12:01;;;;;;;4.00;2.70;;;15.40;99.90;;;;;;5097484;28;20408;-59
2023/07/26 08:14:27;;;;;;;4.40;2.90;;;15.60;99.90;;;;;;5099024;28;20036;-59
2023/07/26 08:16:53;;;;;;;4.43;3.00;;;15.70;99.90;;;;;;5098763;28;20052;-58
2023/07/26 08:19:19;;;;;;;4.50;3.08;;;15.90;99.90;;;;;;5096521;28;20079;-60
2023/07/26 08:21:44;;;;;;;4.97;3.17;;;16.10;99.90;;;;;;5097835;28;20048;-59
2023/07/26 08:24:10;;;;;;;4.05;3.05;;;16.40;99.90;;;;;;5096332;28;20051;-59
2023/07/26 08:26:36;;;;;;;5.45;3.60;;;16.60;99.90;;;;;;5098066;28;20032;-60
2023/07/26 08:29:03;;;;;;;7.50;3.60;;;16.70;99.90;;;;;;5097361;28;20032;-59
2023/07/26 08:31:29;;;;;;;4.55;3.50;;;16.70;99.90;;;;;;5102938;28;20043;-59
2023/07/26 08:33:54;;;;;;;8.00;3.50;;;16.70;99.90;;;;;;5100505;28;20044;-58
2023/07/26 08:36:20;;;;;;;5.97;3.53;;;16.60;99.90;;;;;;5101749;28;20325;-59
2023/07/26 08:38:46;;;;;;;7.43;4.18;;;16.60;99.90;;;;;;5102746;28;20505;-59
2023/07/26 08:41:12;;;;;;;5.45;3.45;;;16.50;99.90;;;;;;5100792;28;20122;-59
2023/07/26 08:43:39;;;;;;;8.05;3.72;;;16.60;99.90;;;;;;5102951;28;20487;-59
2023/07/26 08:46:09;;;;;;;5.25;3.58;;;16.80;99.90;;;;;;5099179;28;20040;-58
2023/07/26 08:48:37;;;;;;;5.97;3.35;;;16.90;99.90;;;;;;5102787;28;20035;-59
2023/07/26 08:51:05;;;;;;;6.68;3.47;;;17.10;99.90;;;;;;5101935;28;20051;-58
2023/07/26 08:53:33;;;;;;;7.15;3.80;;;17.20;99.90;;;;;;5101068;28;20040;-58
2023/07/26 08:55:58;;;;;;;5.28;3.42;;;17.40;99.90;;;;;;5102284;28;20044;-58
2023/07/26 08:58:25;;;;;;;4.95;3.45;;;17.50;99.90;;;;;;5082127;28;20046;-57
2023/07/26 09:00:51;;;;;;;6.82;3.75;;;17.60;99.90;;;;;;5102531;28;20082;-55
2023/07/26 09:03:17;;;;;;;5.22;3.80;;;17.80;99.90;;;;;;5099385;28;20423;-56
2023/07/26 09:05:45;;;;;;;4.72;3.22;;;17.80;99.90;;;;;;5102342;28;20036;-57
2023/07/26 09:08:11;;;;;;;5.43;3.40;;;17.80;99.90;;;;;;5101461;28;20104;-57
2023/07/26 09:10:39;;;;;;;4.72;3.70;;;17.80;99.90;;;;;;5100697;28;20043;-56
2023/07/26 09:13:13;;;;;;;4.78;3.35;;;17.80;99.90;;;;;;5101612;28;20082;-57
2023/07/26 09:15:41;;;;;;;4.93;3.50;;;17.80;99.90;;;;;;5100109;28;20040;-57
2023/07/26 09:18:08;;;;;;;4.60;3.38;;;18.00;99.90;;;;;;5101110;28;20071;-55
2023/07/26 09:20:35;;;;;;;6.15;3.70;;;18.10;99.90;;;;;;5100469;28;20044;-56
2023/07/26 09:23:04;;;;;;;7.07;3.83;;;18.20;99.90;;;;;;5101479;28;20050;-57
2023/07/26 09:25:39;;;;;;;6.63;3.88;;;18.20;99.90;;;;;;5101279;28;20044;-56
2023/07/26 09:28:12;;;;;;;4.72;3.20;;;18.20;99.90;;;;;;5099965;28;20048;-56
2023/07/26 09:30:40;;;;;;;5.85;4.00;;;18.10;99.90;;;;;;5101817;28;20044;-57
2023/07/26 09:33:08;;;;;;;6.55;4.05;;;18.10;99.90;;;;;;5099558;28;20496;-57
2023/07/26 09:35:48;;;;;;;5.07;3.92;;;18.20;99.90;;;;;;5101886;28;20052;-56
2023/07/26 09:38:16;;;;;;;5.38;4.07;;;18.40;99.90;;;;;;5101251;28;20044;-57
2023/07/26 09:40:42;;;;;;;6.47;3.55;;;18.40;99.90;;;;;;5099560;28;20048;-57
2023/07/26 09:43:08;;;;;;;5.18;3.25;;;18.40;99.90;;;;;;5099877;28;20153;-57
2023/07/26 09:45:36;;;;;;;5.40;2.92;;;18.30;99.90;;;;;;5099458;28;20115;-57
2023/07/26 09:48:11;;;;;;;5.03;2.90;;;18.20;99.90;;;;;;5101831;28;20044;-57
2023/07/26 09:50:40;;;;;;;5.70;3.38;;;18.20;99.90;;;;;;5099859;28;20135;-56
2023/07/26 09:53:06;;;;;;;4.57;3.00;;;18.20;99.90;;;;;;5100847;28;20165;-57
2023/07/26 09:55:33;;;;;;;6.88;3.20;;;18.20;99.90;;;;;;5099667;28;20044;-56
2023/07/26 09:58:00;;;;;;;5.22;2.95;;;18.20;99.90;;;;;;5099457;28;20105;-57
2023/07/26 10:00:28;;;;;;;5.70;3.40;;;18.30;99.90;;;;;;5101208;28;20067;-57
2023/07/26 10:02:57;;;;;;;5.55;3.03;;;18.40;99.90;;;;;;5098776;28;20257;-57
2023/07/26 10:05:25;;;;;;;7.28;2.92;;;18.50;99.90;;;;;;5101710;28;20092;-57
2023/07/26 10:07:51;;;;;;;4.55;2.95;;;18.60;99.90;;;;;;5099646;28;20047;-56
2023/07/26 10:10:18;;;;;;;6.13;3.20;;;18.70;99.90;;;;;;5099093;28;20047;-57
2023/07/26 10:12:46;;;;;;;6.22;3.40;;;18.70;99.90;;;;;;5100559;28;20044;-59
2023/07/26 10:15:16;;;;;;;5.88;3.83;;;18.70;99.90;;;;;;5097740;28;20066;-58
2023/07/26 10:17:47;;;;;;;5.72;3.30;;;18.70;99.90;;;;;;5101086;28;20438;-59
2023/07/26 10:20:13;;;;;;;6.40;3.22;;;18.80;99.90;;;;;;5098849;28;20032;-58
2023/07/26 10:22:41;;;;;;;6.07;3.05;;;18.80;99.90;;;;;;5101340;28;20101;-59
2023/07/26 10:25:07;;;;;;;7.03;3.17;;;18.80;99.90;;;;;;5099753;28;20068;-57
2023/07/26 10:27:33;;;;;;;6.20;3.33;;;18.90;99.90;;;;;;5099707;28;20058;-58
2023/07/26 10:29:59;;;;;;;5.68;3.00;;;18.80;99.90;;;;;;5100422;28;20055;-58
2023/07/26 10:32:25;;;;;;;7.75;3.72;;;18.70;99.90;;;;;;5097545;28;20054;-57
2023/07/26 10:34:57;;;;;;;5.47;3.03;;;18.60;99.90;;;;;;5100536;28;20060;-57
2023/07/26 10:37:29;;;;;;;4.65;2.75;;;18.50;99.90;;;;;;5097178;28;20052;-57
2023/07/26 10:39:55;;;;;;;5.18;2.35;;;18.50;99.90;;;;;;5100708;28;20036;-57
2023/07/26 10:42:26;;;;;;;3.88;2.40;;;18.50;99.90;;;;;;5097899;28;20046;-57
2023/07/26 10:45:00;;;;;;;4.07;2.30;;;18.60;99.90;;;;;;5099134;28;20052;-57
2023/07/26 10:47:26;;;;;;;3.55;2.38;;;18.80;99.90;;;;;;5100483;28;20457;-57
2023/07/26 10:49:54;;;;;;;6.72;2.50;;;18.80;99.90;;;;;;5098274;28;20060;-58
2023/07/26 10:52:20;;;;;;;4.97;2.70;;;18.80;99.90;;;;;;5099907;28;20044;-57
2023/07/26 10:54:52;;;;;;;3.35;2.35;;;18.70;99.90;;;;;;5097211;28;20526;-57
2023/07/26 10:57:28;;;;;;;8.15;2.78;;;18.50;99.90;;;;;;5099897;28;20490;-58
2023/07/26 10:59:57;;;;;;;;;;;18.30;99.90;;;;;;5100587;28;20036;-58
2023/07/26 11:03:01;;;;;;;5.57;3.10;;;18.00;99.90;;;;;;5096743;28;19919;-57
2023/07/26 11:05:29;;;;;;;5.68;2.70;;;17.70;99.90;;;;;;5100416;28;20048;-57
2023/07/26 11:08:01;;;;;;;5.97;2.20;;;17.40;99.90;;;;;;5099021;28;20044;-57
2023/07/26 11:10:48;;;;;;;5.55;2.47;;;17.20;99.90;;;;;;5097963;28;20534;-58
2023/07/26 11:13:16;;;;;;;4.47;2.80;;;17.00;99.90;;;;;;5099978;28;20069;-57
2023/07/26 11:15:44;;;;;;;4.82;2.92;;;16.90;99.90;;;;;;5096578;28;20047;-58
2023/07/26 11:18:10;;;;;;;5.00;2.58;;;16.90;99.90;;;;;;5100442;28;20050;-58
2023/07/26 11:20:44;;;;;;;5.28;2.72;;;17.00;99.90;;;;;;5098350;28;20115;-57
2023/07/26 11:23:36;;;;;;;4.50;2.78;;;17.10;99.90;;;;;;5099164;28;20044;-57
2023/07/26 11:26:02;;;;;;;4.43;2.65;;;17.30;99.90;;;;;;5099342;28;20052;-58
2023/07/26 11:28:32;;;;;;;5.50;3.53;;;17.30;99.90;;;;;;5097977;28;20073;-58
2023/07/26 11:31:00;;;;;;;6.72;3.60;;;17.30;99.90;;;;;;5100367;28;20047;-58
2023/07/26 11:33:29;;;;;;;6.07;3.50;;;17.40;99.90;;;;;;5098132;28;20044;-58
2023/07/26 11:35:56;;;;;;;6.68;3.55;;;17.50;99.90;;;;;;5099206;28;20063;-58
2023/07/26 11:38:22;;;;;;;6.32;3.53;;;17.60;99.90;;;;;;5099542;28;20090;-57
2023/07/26 11:40:50;;;;;;;7.30;4.13;;;17.70;99.90;;;;;;5097850;28;20040;-58
2023/07/26 11:43:16;;;;;;;7.85;3.78;;;17.70;99.90;;;;;;5099440;28;20099;-58
2023/07/26 11:45:43;;;;;;;8.23;4.25;;;17.80;99.90;;;;;;5097628;28;20047;-58
2023/07/26 11:48:11;;;;;;;8.13;3.30;;;17.90;99.90;;;;;;5100168;28;20044;-58
2023/07/26 11:50:37;;;;;;;6.55;3.60;;;17.90;99.90;;;;;;5098297;28;20036;-58
2023/07/26 11:53:08;;;;;;;7.18;3.22;;;18.00;99.90;;;;;;5099420;28;20481;-58
2023/07/26 11:55:35;;;;;;;5.47;3.08;;;18.00;99.90;;;;;;5099349;28;20083;-57
2023/07/26 11:58:07;;;;;;;6.40;3.08;;;18.10;99.90;;;;;;5096248;28;20067;-58
2023/07/26 12:00:35;;;;;;;6.15;3.00;;;18.20;99.90;;;;;;5099903;28;20047;-57
2023/07/26 12:03:02;;;;;;;7.43;3.20;;;18.20;99.90;;;;;;5097637;28;20104;-58
2023/07/26 12:05:28;;;;;;;5.85;2.92;;;18.20;99.90;;;;;;5103943;28;20047;-58
2023/07/26 12:07:58;;;;;;;7.55;3.53;;;18.20;99.90;;;;;;5102282;28;20044;-57
2023/07/26 12:10:28;;;;;;;5.80;2.72;;;18.30;99.90;;;;;;5102361;28;20073;-58
2023/07/26 12:12:55;;;;;;;5.57;2.80;;;18.40;99.90;;;;;;5103053;28;20044;-58
2023/07/26 12:15:21;;;;;;;5.25;2.58;;;18.50;99.90;;;;;;5101444;28;20044;-58
2023/07/26 12:18:01;;;;;;;4.03;2.25;;;18.60;99.90;;;;;;5103734;28;20115;-58
2023/07/26 12:20:29;;;;;;;4.38;2.63;;;18.70;99.90;;;;;;5101436;28;20055;-58
2023/07/26 12:22:58;;;;;;;6.35;2.78;;;18.90;99.90;;;;;;5084554;28;20047;-58
2023/07/26 12:25:38;;;;;;;4.60;2.75;;;19.00;99.90;;;;;;5102902;28;20048;-58
2023/07/26 12:28:09;;;;;;;4.15;2.45;;;18.90;99.90;;;;;;5099741;28;20036;-58
2023/07/26 12:30:35;;;;;;;4.78;2.65;;;18.80;99.90;;;;;;5103159;28;20150;-58
2023/07/26 12:33:28;;;;;;;7.30;2.92;;;18.80;99.90;;;;;;5100666;28;20044;-59
2023/07/26 12:35:55;;;;;;;6.70;2.83;;;18.90;99.90;;;;;;5099811;28;20500;-59
2023/07/26 12:38:22;;;;;;;5.22;2.80;;;18.90;99.90;;;;;;5102564;28;20062;-57
2023/07/26 12:40:50;;;;;;;6.32;2.70;;;18.30;99.90;;;;;;5100989;28;20058;-58
2023/07/26 12:43:27;;;;;;;4.95;2.78;;;19.10;99.90;;;;;;5084069;28;20127;-59
2023/07/26 12:45:55;;;;;;;5.63;3.13;;;19.20;99.90;;;;;;5100838;28;20044;-56